createdAt,value
2023-08-07T00:02:26.752Z,1.00
2023-08-07T00:04:54.054Z,0.80
2023-08-07T00:07:20.966Z,2.70
2023-08-07T00:09:47.931Z,1.30
2023-08-07T00:12:14.779Z,0.90
2023-08-07T00:14:41.840Z,1.50
2023-08-07T00:17:09.039Z,1.00
2023-08-07T00:19:36.041Z,1.10
2023-08-07T00:22:03.033Z,1.00
2023-08-07T00:24:29.939Z,2.90
2023-08-07T00:26:57.250Z,1.10
2023-08-07T00:29:24.574Z,1.70
2023-08-07T00:31:51.387Z,2.90
2023-08-07T00:34:18.351Z,1.00
2023-08-07T00:36:45.813Z,0.80
2023-08-07T00:39:12.778Z,1.40
2023-08-07T00:41:40.822Z,0.70
2023-08-07T00:44:07.821Z,0.90
2023-08-07T00:46:36.387Z,1.10
2023-08-07T00:49:04.439Z,2.80
2023-08-07T00:51:32.113Z,2.50
2023-08-07T00:54:02.315Z,1.00
2023-08-07T00:56:31.011Z,1.20
2023-08-07T00:58:59.250Z,2.90
2023-08-07T01:01:26.806Z,1.40
2023-08-07T01:03:54.322Z,1.90
2023-08-07T01:06:21.545Z,1.50
2023-08-07T01:08:48.948Z,2.60
2023-08-07T01:11:21.704Z,1.70
2023-08-07T01:14:10.282Z,3.60
2023-08-07T01:16:51.287Z,1.50
2023-08-07T01:19:27.443Z,1.10
2023-08-07T01:22:14.602Z,2.10
2023-08-07T01:24:46.161Z,3.20
2023-08-07T01:27:19.259Z,4.70
2023-08-07T01:32:25.298Z,2.50
2023-08-07T01:34:54.659Z,2.30
2023-08-07T01:37:23.491Z,2.40
2023-08-07T01:39:52.220Z,2.50
2023-08-07T01:42:19.278Z,2.20
2023-08-07T01:44:46.578Z,2.50
2023-08-07T01:47:13.498Z,2.90
2023-08-07T01:49:41.270Z,1.60
2023-08-07T01:52:09.371Z,1.60
2023-08-07T01:54:36.262Z,2.40
2023-08-07T01:57:03.577Z,2.10
2023-08-07T01:59:31.699Z,1.50
2023-08-07T02:01:58.818Z,2.10
2023-08-07T02:04:25.905Z,2.50
2023-08-07T02:06:54.316Z,2.50
2023-08-07T02:09:23.193Z,5.50
2023-08-07T02:11:50.324Z,2.30
2023-08-07T02:14:17.370Z,2.90
2023-08-07T02:16:44.243Z,3.20
2023-08-07T02:19:11.583Z,2.70
2023-08-07T02:21:39.557Z,1.90
2023-08-07T02:24:06.522Z,1.20
2023-08-07T02:26:33.155Z,1.60
2023-08-07T02:29:00.213Z,1.60
2023-08-07T02:31:27.085Z,1.50
2023-08-07T02:33:55.305Z,2.60
2023-08-07T02:36:22.077Z,2.20
2023-08-07T02:38:48.994Z,1.40
2023-08-07T02:41:15.851Z,2.50
2023-08-07T02:43:43.703Z,1.60
2023-08-07T02:46:10.490Z,2.20
2023-08-07T02:48:38.013Z,1.40
2023-08-07T02:51:04.883Z,1.40
2023-08-07T02:53:32.003Z,1.90
2023-08-07T02:55:58.951Z,2.20
2023-08-07T02:58:25.623Z,1.70
2023-08-07T03:00:52.743Z,2.40
2023-08-07T03:03:19.703Z,3.00
2023-08-07T03:05:51.581Z,0.90
2023-08-07T03:08:18.537Z,2.40
2023-08-07T03:10:57.459Z,1.50
2023-08-07T03:13:26.471Z,3.30
2023-08-07T03:16:19.809Z,1.50
2023-08-07T03:18:47.563Z,1.60
2023-08-07T03:21:14.751Z,1.70
2023-08-07T03:23:42.062Z,1.10
2023-08-07T03:26:18.971Z,2.20
2023-08-07T03:28:49.121Z,2.20
2023-08-07T03:31:17.215Z,2.20
2023-08-07T03:33:44.449Z,1.10
2023-08-07T03:36:12.953Z,2.10
2023-08-07T03:38:41.497Z,1.50
2023-08-07T03:41:08.964Z,2.80
2023-08-07T03:43:36.302Z,1.20
2023-08-07T03:46:04.269Z,1.30
2023-08-07T03:48:32.222Z,1.70
2023-08-07T03:51:04.901Z,1.50
2023-08-07T03:53:32.918Z,1.00
2023-08-07T03:55:59.939Z,0.90
2023-08-07T03:58:27.316Z,1.60
2023-08-07T04:00:54.890Z,1.70
2023-08-07T04:03:22.582Z,1.00
2023-08-07T04:05:54.757Z,2.00
2023-08-07T04:08:24.169Z,0.90
2023-08-07T04:11:01.695Z,2.40
2023-08-07T04:13:29.672Z,1.50
2023-08-07T04:15:57.352Z,1.00
2023-08-07T04:18:25.134Z,1.60
2023-08-07T04:20:56.527Z,1.30
2023-08-07T04:23:24.301Z,1.70
2023-08-07T04:25:52.578Z,1.50
2023-08-07T04:28:20.060Z,2.30
2023-08-07T04:30:53.957Z,2.30
2023-08-07T04:33:21.528Z,1.60
2023-08-07T04:35:49.143Z,1.60
2023-08-07T04:38:17.588Z,1.70
2023-08-07T04:40:49.552Z,1.80
2023-08-07T04:43:18.471Z,2.20
2023-08-07T04:45:48.328Z,0.90
2023-08-07T04:48:16.068Z,1.80
2023-08-07T04:50:43.086Z,1.30
2023-08-07T04:53:10.104Z,0.70
2023-08-07T04:55:37.349Z,0.90
2023-08-07T04:58:04.564Z,0.80
2023-08-07T05:00:31.361Z,1.30
2023-08-07T05:02:58.519Z,1.10
2023-08-07T05:05:25.682Z,1.60
2023-08-07T05:07:52.702Z,0.60
2023-08-07T05:10:19.771Z,2.40
2023-08-07T05:12:46.731Z,0.90
2023-08-07T05:15:13.560Z,0.80
2023-08-07T05:17:40.785Z,0.80
2023-08-07T05:20:09.365Z,1.30
2023-08-07T05:22:36.451Z,2.40
2023-08-07T05:25:03.895Z,0.90
2023-08-07T05:27:30.814Z,0.80
2023-08-07T05:29:57.780Z,1.30
2023-08-07T05:32:24.844Z,0.60
2023-08-07T05:34:51.980Z,0.60
2023-08-07T05:37:18.654Z,2.80
2023-08-07T05:39:45.786Z,7.70
2023-08-07T05:42:13.499Z,13.60
2023-08-07T05:44:40.264Z,22.30
2023-08-07T05:47:08.068Z,17.10
2023-08-07T05:49:35.056Z,13.40
2023-08-07T05:52:02.043Z,6.50
2023-08-07T05:54:29.143Z,0.80
2023-08-07T05:56:56.239Z,2.60
2023-08-07T05:59:23.295Z,0.60
2023-08-07T06:01:50.507Z,0.70
2023-08-07T06:04:18.222Z,3.40
2023-08-07T06:06:46.489Z,2.20
2023-08-07T06:09:15.594Z,4.90
2023-08-07T06:11:42.894Z,1.70
2023-08-07T06:14:10.410Z,0.50
2023-08-07T06:16:37.374Z,0.60
2023-08-07T06:21:31.971Z,0.50
2023-08-07T06:23:59.049Z,1.00
2023-08-07T06:26:25.794Z,0.70
2023-08-07T06:28:53.015Z,1.20
2023-08-07T06:31:19.737Z,1.10
2023-08-07T06:33:46.547Z,1.80
2023-08-07T06:36:13.699Z,1.70
2023-08-07T06:38:40.594Z,0.60
2023-08-07T06:41:07.680Z,1.20
2023-08-07T06:43:34.691Z,0.60
2023-08-07T06:46:01.965Z,0.50
2023-08-07T06:48:29.314Z,0.50
2023-08-07T06:50:56.065Z,1.00
2023-08-07T06:53:22.843Z,0.90
2023-08-07T06:55:49.973Z,1.40
2023-08-07T06:58:16.885Z,1.70
2023-08-07T07:00:43.844Z,2.30
2023-08-07T07:03:10.877Z,1.60
2023-08-07T07:05:38.655Z,0.80
2023-08-07T07:08:05.395Z,2.50
2023-08-07T07:10:33.064Z,1.40
2023-08-07T07:13:00.128Z,0.40
2023-08-07T07:15:27.173Z,0.90
2023-08-07T07:17:54.459Z,1.50
2023-08-07T07:20:21.698Z,2.90
2023-08-07T07:22:48.355Z,0.60
2023-08-07T07:25:15.374Z,1.50
2023-08-07T07:27:42.295Z,1.50
2023-08-07T07:30:10.186Z,1.00
2023-08-07T07:32:37.165Z,1.50
2023-08-07T07:35:04.684Z,1.70
2023-08-07T07:37:32.758Z,0.90
2023-08-07T07:39:59.531Z,0.40
2023-08-07T07:42:26.450Z,1.40
2023-08-07T07:44:53.391Z,0.60
2023-08-07T07:47:21.229Z,0.70
2023-08-07T07:49:48.271Z,2.90
2023-08-07T07:52:16.078Z,0.50
2023-08-07T07:54:45.477Z,0.70
2023-08-07T07:57:12.360Z,0.70
2023-08-07T07:59:39.378Z,1.90
2023-08-07T08:02:06.936Z,0.80
2023-08-07T08:04:35.943Z,1.20
2023-08-07T08:07:04.522Z,1.10
2023-08-07T08:09:31.508Z,2.10
2023-08-07T08:11:58.385Z,0.50
2023-08-07T08:14:25.464Z,1.10
2023-08-07T08:16:52.228Z,2.20
2023-08-07T08:19:18.997Z,0.40
2023-08-07T08:21:45.822Z,6.30
2023-08-07T08:24:12.683Z,3.00
2023-08-07T08:26:39.622Z,1.80
2023-08-07T08:29:07.469Z,0.70
2023-08-07T08:31:37.152Z,0.70
2023-08-07T08:34:04.630Z,2.50
2023-08-07T08:36:31.663Z,0.50
2023-08-07T08:38:58.619Z,0.30
2023-08-07T08:41:26.696Z,0.80
2023-08-07T08:43:55.415Z,0.80
2023-08-07T08:46:25.036Z,3.10
2023-08-07T08:48:58.054Z,0.70
2023-08-07T08:51:26.011Z,2.60
2023-08-07T08:53:54.497Z,2.20
2023-08-07T08:56:23.371Z,0.50
2023-08-07T08:58:53.809Z,2.80
2023-08-07T09:01:25.010Z,0.30
2023-08-07T09:03:54.437Z,0.50
2023-08-07T09:06:21.671Z,0.70
2023-08-07T09:08:51.442Z,0.60
2023-08-07T09:11:19.796Z,1.30
2023-08-07T09:13:49.592Z,1.50
2023-08-07T09:16:18.193Z,1.30
2023-08-07T09:18:46.343Z,1.90
2023-08-07T09:21:16.719Z,0.80
2023-08-07T09:23:44.127Z,0.40
2023-08-07T09:26:11.474Z,2.70
2023-08-07T09:28:39.353Z,3.30
2023-08-07T09:31:10.129Z,0.30
2023-08-07T09:33:40.008Z,0.60
2023-08-07T09:36:06.744Z,1.50
2023-08-07T09:38:33.734Z,1.70
2023-08-07T09:41:02.100Z,0.70
2023-08-07T09:43:29.120Z,1.50
2023-08-07T09:46:06.577Z,0.90
2023-08-07T09:48:41.499Z,0.20
2023-08-07T09:51:08.484Z,0.30
2023-08-07T09:53:35.688Z,0.60
2023-08-07T09:56:03.840Z,0.30
2023-08-07T09:58:30.660Z,0.70
2023-08-07T10:01:04.784Z,3.80
2023-08-07T10:03:32.397Z,3.20
2023-08-07T10:06:00.129Z,2.10
2023-08-07T10:08:27.467Z,1.40
2023-08-07T10:10:55.021Z,2.20
2023-08-07T10:13:34.433Z,2.80
2023-08-07T10:18:35.958Z,1.80
2023-08-07T10:21:06.154Z,0.30
2023-08-07T10:23:36.809Z,1.30
2023-08-07T10:26:09.419Z,1.90
2023-08-07T10:28:39.909Z,0.50
2023-08-07T10:31:12.827Z,1.40
2023-08-07T10:33:41.817Z,2.30
2023-08-07T10:36:10.739Z,0.40
2023-08-07T10:38:38.241Z,0.40
2023-08-07T10:41:15.165Z,2.70
2023-08-07T10:43:44.122Z,0.40
2023-08-07T10:46:21.331Z,0.20
2023-08-07T10:49:01.042Z,0.40
2023-08-07T10:51:34.043Z,1.20
2023-08-07T10:54:02.668Z,2.50
2023-08-07T10:56:37.810Z,1.80
2023-08-07T10:59:12.887Z,6.20
2023-08-07T11:01:40.251Z,2.70
2023-08-07T11:04:15.186Z,6.30
2023-08-07T11:06:45.215Z,1.70
2023-08-07T11:09:12.263Z,0.50
2023-08-07T11:11:43.857Z,2.50
2023-08-07T11:14:15.994Z,2.40
2023-08-07T11:16:43.957Z,1.40
2023-08-07T11:19:14.223Z,0.70
2023-08-07T11:21:43.072Z,0.50
2023-08-07T11:24:14.541Z,0.40
2023-08-07T11:26:44.455Z,0.90
2023-08-07T11:29:11.401Z,1.00
2023-08-07T11:31:38.388Z,0.60
2023-08-07T11:34:05.605Z,1.50
2023-08-07T11:36:34.414Z,1.10
2023-08-07T11:39:01.746Z,1.70
2023-08-07T11:41:32.777Z,2.40
2023-08-07T11:44:00.582Z,1.30
2023-08-07T11:46:28.004Z,3.20
2023-08-07T11:48:56.747Z,1.10
2023-08-07T11:51:24.029Z,0.70
2023-08-07T11:53:57.052Z,0.40
2023-08-07T11:56:24.017Z,1.30
2023-08-07T11:58:53.603Z,3.50
2023-08-07T12:01:27.153Z,5.30
2023-08-07T12:04:08.891Z,4.40
2023-08-07T12:06:36.686Z,7.20
2023-08-07T12:09:04.104Z,2.70
2023-08-07T12:11:31.828Z,2.10
2023-08-07T12:14:04.116Z,2.20
2023-08-07T12:16:36.299Z,1.30
2023-08-07T12:19:05.608Z,0.70
2023-08-07T12:21:34.049Z,2.10
2023-08-07T12:24:01.040Z,1.70
2023-08-07T12:26:27.910Z,1.00
2023-08-07T12:28:55.495Z,0.60
2023-08-07T12:31:23.148Z,0.90
2023-08-07T12:33:50.114Z,0.50
2023-08-07T12:36:20.988Z,1.80
2023-08-07T12:38:49.001Z,0.50
2023-08-07T12:43:46.226Z,1.80
2023-08-07T12:48:42.825Z,1.50
2023-08-07T12:51:09.770Z,3.80
2023-08-07T12:53:36.820Z,0.60
2023-08-07T12:56:05.605Z,2.30
2023-08-07T12:58:32.683Z,2.00
2023-08-07T13:00:59.417Z,1.70
2023-08-07T13:03:26.415Z,1.30
2023-08-07T13:05:53.620Z,2.70
2023-08-07T13:08:20.410Z,1.40
2023-08-07T13:10:50.028Z,1.30
2023-08-07T13:13:17.611Z,2.80
2023-08-07T13:15:44.436Z,2.00
2023-08-07T13:18:11.626Z,1.80
2023-08-07T13:20:38.408Z,3.80
2023-08-07T13:23:06.757Z,3.20
2023-08-07T13:25:33.884Z,1.40
2023-08-07T13:28:02.082Z,1.30
2023-08-07T13:30:33.585Z,1.50
2023-08-07T13:33:03.128Z,1.20
2023-08-07T13:35:30.398Z,2.70
2023-08-07T13:37:57.361Z,1.60
2023-08-07T13:40:24.530Z,2.40
2023-08-07T13:42:51.523Z,3.40
2023-08-07T13:45:18.170Z,3.90
2023-08-07T13:47:44.862Z,0.50
2023-08-07T13:50:13.293Z,3.10
2023-08-07T13:52:40.039Z,2.50
2023-08-07T13:55:09.449Z,1.50
2023-08-07T13:57:36.520Z,0.80
2023-08-07T14:00:04.252Z,1.20
2023-08-07T14:02:34.136Z,2.10
2023-08-07T14:05:01.321Z,1.00
2023-08-07T14:07:28.106Z,2.10
2023-08-07T14:09:55.054Z,2.60
2023-08-07T14:12:21.873Z,1.00
2023-08-07T14:14:48.815Z,0.80
2023-08-07T14:17:15.858Z,1.10
2023-08-07T14:19:43.137Z,1.30
2023-08-07T14:22:10.811Z,1.80
2023-08-07T14:24:38.032Z,2.10
2023-08-07T14:27:05.186Z,2.90
2023-08-07T14:29:32.333Z,1.60
2023-08-07T14:31:59.386Z,0.90
2023-08-07T14:34:26.166Z,2.00
2023-08-07T14:36:54.940Z,1.00
2023-08-07T14:39:22.663Z,0.90
2023-08-07T14:41:52.572Z,0.50
2023-08-07T14:44:19.445Z,1.50
2023-08-07T14:46:46.598Z,0.60
2023-08-07T14:49:13.457Z,0.70
2023-08-07T14:51:40.485Z,1.50
2023-08-07T14:54:07.460Z,1.60
2023-08-07T14:56:34.383Z,0.30
2023-08-07T14:59:01.468Z,1.50
2023-08-07T15:01:28.356Z,0.30
2023-08-07T15:03:55.428Z,0.70
2023-08-07T15:06:22.477Z,1.80
2023-08-07T15:08:49.553Z,1.20
2023-08-07T15:11:17.505Z,1.00
2023-08-07T15:13:44.587Z,1.20
2023-08-07T15:16:13.501Z,2.50
2023-08-07T15:19:05.722Z,1.30
2023-08-07T15:21:32.747Z,2.30
2023-08-07T15:23:59.992Z,0.60
2023-08-07T15:26:27.557Z,1.40
2023-08-07T15:28:54.799Z,0.80
2023-08-07T15:31:21.801Z,1.50
2023-08-07T15:33:51.363Z,2.10
2023-08-07T15:36:18.107Z,1.40
2023-08-07T15:38:44.953Z,2.40
2023-08-07T15:41:12.608Z,1.00
2023-08-07T15:43:39.574Z,1.90
2023-08-07T15:46:06.428Z,1.10
2023-08-07T15:48:33.219Z,0.60
2023-08-07T15:51:00.111Z,1.00
2023-08-07T15:53:27.356Z,0.80
2023-08-07T15:55:54.400Z,1.30
2023-08-07T15:58:23.399Z,1.30
2023-08-07T16:00:50.867Z,2.00
2023-08-07T16:03:18.313Z,1.00
2023-08-07T16:05:45.742Z,0.70
2023-08-07T16:08:12.537Z,0.50
2023-08-07T16:10:39.459Z,0.90
2023-08-07T16:13:06.509Z,0.40
2023-08-07T16:15:34.891Z,1.30
2023-08-07T16:18:03.902Z,2.40
2023-08-07T16:20:31.858Z,1.30
2023-08-07T16:22:58.727Z,1.70
2023-08-07T16:25:25.669Z,0.90
2023-08-07T16:27:52.906Z,0.50
2023-08-07T16:30:19.956Z,2.20
2023-08-07T16:32:46.638Z,1.00
2023-08-07T16:35:14.672Z,0.50
2023-08-07T16:37:42.733Z,1.20
2023-08-07T16:40:10.913Z,0.30
2023-08-07T16:42:37.981Z,0.40
2023-08-07T16:45:05.803Z,2.30
2023-08-07T16:47:32.745Z,1.60
2023-08-07T16:49:59.974Z,0.40
2023-08-07T16:52:27.403Z,0.90
2023-08-07T16:54:55.013Z,1.20
2023-08-07T16:57:22.543Z,1.00
2023-08-07T16:59:49.466Z,0.80
2023-08-07T17:02:16.434Z,11.10
2023-08-07T17:04:43.566Z,36.60
2023-08-07T17:07:10.913Z,9.60
2023-08-07T17:09:37.965Z,3.30
2023-08-07T17:12:05.740Z,2.10
2023-08-07T17:14:33.546Z,2.00
2023-08-07T17:17:00.616Z,0.90
2023-08-07T17:19:28.024Z,2.10
2023-08-07T17:21:55.057Z,1.30
2023-08-07T17:24:21.910Z,2.10
2023-08-07T17:26:48.857Z,3.70
2023-08-07T17:29:15.629Z,3.30
2023-08-07T17:31:43.556Z,2.70
2023-08-07T17:34:11.298Z,3.20
2023-08-07T17:36:38.493Z,3.40
2023-08-07T17:39:05.731Z,3.60
2023-08-07T17:41:32.696Z,4.10
2023-08-07T17:43:59.630Z,1.70
2023-08-07T17:46:26.642Z,0.50
2023-08-07T17:48:54.035Z,2.00
2023-08-07T17:51:20.916Z,1.60
2023-08-07T17:53:47.853Z,1.60
2023-08-07T17:56:14.675Z,2.70
2023-08-07T17:58:41.440Z,1.10
2023-08-07T18:01:08.819Z,0.60
2023-08-07T18:03:35.943Z,0.60
2023-08-07T18:06:03.119Z,0.70
2023-08-07T18:08:29.867Z,3.60
2023-08-07T18:10:56.973Z,2.00
2023-08-07T18:13:24.055Z,0.80
2023-08-07T18:15:51.180Z,2.60
2023-08-07T18:18:18.385Z,0.50
2023-08-07T18:20:45.597Z,0.40
2023-08-07T18:23:14.586Z,0.30
2023-08-07T18:25:41.743Z,2.20
2023-08-07T18:28:08.687Z,0.30
2023-08-07T18:30:35.426Z,1.10
2023-08-07T18:33:02.529Z,1.90
2023-08-07T18:35:29.320Z,0.40
2023-08-07T18:37:57.460Z,0.40
2023-08-07T18:40:24.371Z,0.80
2023-08-07T18:42:51.481Z,4.20
2023-08-07T18:45:21.055Z,1.40
2023-08-07T18:47:48.065Z,1.70
2023-08-07T18:50:14.849Z,3.60
2023-08-07T18:52:41.645Z,2.80
2023-08-07T18:55:09.593Z,3.30
2023-08-07T18:57:36.766Z,2.20
2023-08-07T19:00:06.724Z,1.80
2023-08-07T19:02:33.715Z,2.70
2023-08-07T19:05:01.074Z,2.10
2023-08-07T19:07:28.217Z,5.00
2023-08-07T19:09:55.290Z,4.30
2023-08-07T19:12:22.530Z,3.00
2023-08-07T19:14:49.599Z,5.40
2023-08-07T19:17:16.524Z,6.20
2023-08-07T19:19:43.474Z,6.30
2023-08-07T19:22:10.615Z,6.10
2023-08-07T19:24:40.121Z,7.80
2023-08-07T19:27:07.280Z,5.60
2023-08-07T19:29:34.118Z,4.00
2023-08-07T19:32:01.505Z,4.40
2023-08-07T19:34:28.522Z,2.40
2023-08-07T19:36:55.489Z,2.10
2023-08-07T19:39:24.915Z,1.60
2023-08-07T19:41:51.637Z,1.90
2023-08-07T19:44:18.566Z,2.10
2023-08-07T19:46:45.646Z,1.30
2023-08-07T19:49:12.666Z,3.10
2023-08-07T19:51:39.922Z,1.50
2023-08-07T19:54:08.317Z,2.20
2023-08-07T19:56:36.794Z,1.90
2023-08-07T19:59:05.925Z,3.10
2023-08-07T20:01:33.409Z,3.50
2023-08-07T20:04:01.169Z,8.40
2023-08-07T20:06:36.100Z,3.70
2023-08-07T20:09:03.704Z,3.50
2023-08-07T20:11:38.216Z,1.30
2023-08-07T20:14:05.416Z,2.90
2023-08-07T20:16:33.774Z,1.90
2023-08-07T20:19:00.630Z,2.60
2023-08-07T20:21:28.482Z,2.40
2023-08-07T20:23:55.755Z,5.60
2023-08-07T20:26:24.836Z,6.40
2023-08-07T20:28:51.911Z,7.80
2023-08-07T20:31:18.983Z,6.30
2023-08-07T20:33:45.926Z,2.60
2023-08-07T20:36:12.833Z,2.70
2023-08-07T20:38:39.770Z,2.70
2023-08-07T20:41:06.639Z,4.40
2023-08-07T20:43:33.586Z,3.20
2023-08-07T20:46:00.552Z,4.30
2023-08-07T20:48:27.368Z,3.40
2023-08-07T20:50:54.550Z,4.10
2023-08-07T20:53:22.785Z,5.00
2023-08-07T20:55:49.850Z,4.50
2023-08-07T20:58:16.898Z,5.40
2023-08-07T21:00:43.949Z,6.40
2023-08-07T21:03:11.426Z,5.60
2023-08-07T21:05:38.542Z,5.70
2023-08-07T21:08:06.335Z,3.50
2023-08-07T21:10:33.261Z,2.00
2023-08-07T21:13:00.025Z,4.30
2023-08-07T21:15:29.926Z,2.60
2023-08-07T21:17:58.195Z,3.70
2023-08-07T21:20:25.396Z,2.60
2023-08-07T21:22:53.954Z,4.00
2023-08-07T21:25:21.738Z,3.20
2023-08-07T21:27:48.748Z,3.80
2023-08-07T21:30:15.760Z,2.80
2023-08-07T21:32:44.658Z,3.30
2023-08-07T21:35:12.466Z,4.40
2023-08-07T21:37:40.035Z,3.30
2023-08-07T21:40:09.571Z,4.30
2023-08-07T21:42:36.586Z,4.80
2023-08-07T21:45:04.257Z,4.70
2023-08-07T21:47:31.123Z,5.00
2023-08-07T21:49:58.335Z,4.10
2023-08-07T21:52:25.395Z,3.90
2023-08-07T21:54:52.263Z,4.20
2023-08-07T21:57:19.603Z,5.90
2023-08-07T21:59:46.644Z,6.10
2023-08-07T22:02:13.633Z,5.30
2023-08-07T22:04:40.996Z,4.70
2023-08-07T22:07:08.000Z,6.90
2023-08-07T22:09:35.081Z,4.00
2023-08-07T22:12:02.514Z,2.80
2023-08-07T22:14:29.458Z,3.80
2023-08-07T22:16:56.600Z,2.50
2023-08-07T22:19:23.864Z,4.00
2023-08-07T22:21:50.801Z,2.10
2023-08-07T22:24:17.759Z,2.90
2023-08-07T22:26:44.823Z,2.30
2023-08-07T22:29:11.854Z,4.20
2023-08-07T22:31:38.925Z,5.20
2023-08-07T22:34:06.326Z,2.90
2023-08-07T22:36:33.649Z,6.60
2023-08-07T22:39:00.473Z,4.40
2023-08-07T22:41:27.721Z,3.00
2023-08-07T22:43:54.618Z,2.50
2023-08-07T22:46:21.877Z,2.80
2023-08-07T22:48:48.995Z,1.70
2023-08-07T22:51:15.965Z,3.30
2023-08-07T22:53:42.871Z,2.00
2023-08-07T22:56:09.951Z,2.60
2023-08-07T22:58:36.968Z,1.60
2023-08-07T23:01:04.158Z,2.00
2023-08-07T23:03:31.484Z,1.40
2023-08-07T23:05:58.742Z,1.90
2023-08-07T23:08:25.704Z,4.10
2023-08-07T23:10:53.544Z,3.20
2023-08-07T23:13:20.592Z,1.80
2023-08-07T23:15:47.877Z,2.10
2023-08-07T23:18:15.134Z,2.90
2023-08-07T23:20:42.260Z,0.80
2023-08-07T23:23:09.407Z,2.10
2023-08-07T23:25:36.375Z,0.70
2023-08-07T23:28:03.925Z,0.80
2023-08-07T23:30:30.895Z,0.90
2023-08-07T23:32:57.878Z,2.40
2023-08-07T23:35:25.158Z,1.90
2023-08-07T23:37:52.626Z,1.40
2023-08-07T23:40:19.869Z,0.60
2023-08-07T23:42:47.943Z,1.10
2023-08-07T23:45:14.925Z,0.70
2023-08-07T23:47:42.020Z,2.20
2023-08-07T23:50:09.911Z,0.80
2023-08-07T23:52:37.816Z,0.90
2023-08-07T23:55:05.240Z,2.00
2023-08-07T23:57:32.297Z,0.70
2023-08-07T23:59:59.142Z,2.60
